sensor_id;sensor_type;location;lat;lon;timestamp;pressure;altitude;pressure_sealevel;temperature;humidity
9738;BME280;4908;47.446;13.900;2023-11-22T00:02:16;92652.38;;;3.53;100.00
9738;BME280;4908;47.446;13.900;2023-11-22T00:04:43;92642.03;;;3.64;100.00
9738;BME280;4908;47.446;13.900;2023-11-22T00:07:10;92638.09;;;3.89;100.00
9738;BME280;4908;47.446;13.900;2023-11-22T00:09:37;92639.53;;;4.02;100.00
9738;BME280;4908;47.446;13.900;2023-11-22T00:12:06;92644.44;;;4.00;100.00
9738;BME280;4908;47.446;13.900;2023-11-22T00:14:34;92663.06;;;3.88;100.00
9738;BME280;4908;47.446;13.900;2023-11-22T00:17:01;92663.91;;;3.61;100.00
9738;BME280;4908;47.446;13.900;2023-11-22T00:19:29;92662.84;;;3.65;100.00
9738;BME280;4908;47.446;13.900;2023-11-22T00:21:56;92666.72;;;3.68;100.00
9738;BME280;4908;47.446;13.900;2023-11-22T00:24:23;92661.59;;;3.75;100.00
9738;BME280;4908;47.446;13.900;2023-11-22T00:26:50;92660.06;;;3.74;100.00
9738;BME280;4908;47.446;13.900;2023-11-22T00:29:19;92664.06;;;3.68;100.00
9738;BME280;4908;47.446;13.900;2023-11-22T00:31:46;92661.94;;;3.74;100.00
9738;BME280;4908;47.446;13.900;2023-11-22T00:34:14;92660.50;;;3.76;100.00
9738;BME280;4908;47.446;13.900;2023-11-22T00:36:41;92660.50;;;3.76;100.00
9738;BME280;4908;47.446;13.900;2023-11-22T00:39:08;92666.44;;;3.73;100.00
9738;BME280;4908;47.446;13.900;2023-11-22T00:41:38;92666.22;;;3.78;100.00
9738;BME280;4908;47.446;13.900;2023-11-22T00:44:06;92671.16;;;3.80;100.00
9738;BME280;4908;47.446;13.900;2023-11-22T00:46:34;92666.22;;;3.78;100.00
9738;BME280;4908;47.446;13.900;2023-11-22T00:49:03;92667.75;;;3.79;100.00
9738;BME280;4908;47.446;13.900;2023-11-22T00:51:31;92674.59;;;3.80;100.00
9738;BME280;4908;47.446;13.900;2023-11-22T00:53:58;92677.47;;;3.75;100.00
9738;BME280;4908;47.446;13.900;2023-11-22T00:56:26;92677.25;;;3.80;100.00
9738;BME280;4908;47.446;13.900;2023-11-22T00:58:54;92671.94;;;3.80;100.00
9738;BME280;4908;47.446;13.900;2023-11-22T01:01:22;92675.44;;;3.84;100.00
9738;BME280;4908;47.446;13.900;2023-11-22T01:03:51;92671.75;;;4.04;100.00
9738;BME280;4908;47.446;13.900;2023-11-22T01:06:18;92666.31;;;3.97;100.00
9738;BME280;4908;47.446;13.900;2023-11-22T01:08:45;92672.81;;;3.84;100.00
9738;BME280;4908;47.446;13.900;2023-11-22T01:11:13;92662.78;;;3.78;100.00
9738;BME280;4908;47.446;13.900;2023-11-22T01:13:41;92667.41;;;3.81;100.00
9738;BME280;4908;47.446;13.900;2023-11-22T01:16:09;92670.75;;;3.93;100.00
9738;BME280;4908;47.446;13.900;2023-11-22T01:18:36;92667.31;;;3.77;100.00
9738;BME280;4908;47.446;13.900;2023-11-22T01:21:05;92669.53;;;3.75;100.00
9738;BME280;4908;47.446;13.900;2023-11-22T01:23:33;92662.72;;;3.74;100.00
9738;BME280;4908;47.446;13.900;2023-11-22T01:26:01;92664.94;;;3.72;100.00
9738;BME280;4908;47.446;13.900;2023-11-22T01:28:29;92667.84;;;3.67;100.00
9738;BME280;4908;47.446;13.900;2023-11-22T01:31:00;92668.69;;;3.71;100.00
9738;BME280;4908;47.446;13.900;2023-11-22T01:33:27;92660.47;;;3.60;100.00
9738;BME280;4908;47.446;13.900;2023-11-22T01:35:55;92666.84;;;3.44;100.00
9738;BME280;4908;47.446;13.900;2023-11-22T01:38:23;92675.03;;;3.39;100.00
9738;BME280;4908;47.446;13.900;2023-11-22T01:40:51;92666.78;;;3.56;100.00
9738;BME280;4908;47.446;13.900;2023-11-22T01:43:19;92668.34;;;3.57;100.00
9738;BME280;4908;47.446;13.900;2023-11-22T01:45:49;92675.28;;;3.34;100.00
9738;BME280;4908;47.446;13.900;2023-11-22T01:48:17;92680.28;;;3.51;100.00
9738;BME280;4908;47.446;13.900;2023-11-22T01:50:44;92681.50;;;3.69;100.00
9738;BME280;4908;47.446;13.900;2023-11-22T01:53:12;92677.66;;;3.67;100.00
9738;BME280;4908;47.446;13.900;2023-11-22T01:55:42;92686.59;;;3.62;100.00
9738;BME280;4908;47.446;13.900;2023-11-22T01:58:10;92692.31;;;3.64;100.00
9738;BME280;4908;47.446;13.900;2023-11-22T02:00:44;92684.38;;;3.64;100.00
9738;BME280;4908;47.446;13.900;2023-11-22T02:03:12;92690.88;;;3.67;100.00
9738;BME280;4908;47.446;13.900;2023-11-22T02:05:40;92687.66;;;3.57;100.00
9738;BME280;4908;47.446;13.900;2023-11-22T02:08:09;92688.16;;;3.63;100.00
9738;BME280;4908;47.446;13.900;2023-11-22T02:10:36;92693.72;;;3.89;100.00
9738;BME280;4908;47.446;13.900;2023-11-22T02:13:05;92687.81;;;3.80;100.00
9738;BME280;4908;47.446;13.900;2023-11-22T02:15:33;92686.97;;;3.76;100.00
9738;BME280;4908;47.446;13.900;2023-11-22T02:18:01;92688.50;;;3.77;100.00
9738;BME280;4908;47.446;13.900;2023-11-22T02:20:28;92687.38;;;3.62;100.00
9738;BME280;4908;47.446;13.900;2023-11-22T02:22:56;92699.59;;;3.67;100.00
9738;BME280;4908;47.446;13.900;2023-11-22T02:25:24;92690.47;;;3.64;100.00
9738;BME280;4908;47.446;13.900;2023-11-22T02:27:51;92691.81;;;3.58;100.00
9738;BME280;4908;47.446;13.900;2023-11-22T02:30:19;92692.59;;;3.59;100.00
9738;BME280;4908;47.446;13.900;2023-11-22T02:32:47;92697.19;;;3.62;100.00
9738;BME280;4908;47.446;13.900;2023-11-22T02:35:14;92697.69;;;3.52;100.00
9738;BME280;4908;47.446;13.900;2023-11-22T02:37:43;92697.22;;;3.34;100.00
9738;BME280;4908;47.446;13.900;2023-11-22T02:40:16;92702.13;;;3.48;100.00
9738;BME280;4908;47.446;13.900;2023-11-22T02:42:46;92699.91;;;3.50;100.00
9738;BME280;4908;47.446;13.900;2023-11-22T02:45:14;92692.63;;;3.75;100.00
9738;BME280;4908;47.446;13.900;2023-11-22T02:47:41;92696.63;;;3.69;100.00
9738;BME280;4908;47.446;13.900;2023-11-22T02:50:11;92692.69;;;3.62;100.00
9738;BME280;4908;47.446;13.900;2023-11-22T02:52:39;92695.75;;;3.64;100.00
9738;BME280;4908;47.446;13.900;2023-11-22T02:55:08;92688.25;;;3.67;100.00
9738;BME280;4908;47.446;13.900;2023-11-22T02:57:36;92697.28;;;3.65;100.00
9738;BME280;4908;47.446;13.900;2023-11-22T03:00:06;92692.75;;;3.66;100.00
9738;BME280;4908;47.446;13.900;2023-11-22T03:02:33;92696.00;;;3.75;100.00
9738;BME280;4908;47.446;13.900;2023-11-22T03:05:01;92702.00;;;3.72;100.00
9738;BME280;4908;47.446;13.900;2023-11-22T03:07:29;92706.25;;;3.61;100.00
9738;BME280;4908;47.446;13.900;2023-11-22T03:09:56;92709.13;;;3.56;100.00
9738;BME280;4908;47.446;13.900;2023-11-22T03:12:25;92708.03;;;3.57;100.00
9738;BME280;4908;47.446;13.900;2023-11-22T03:14:53;92700.97;;;3.61;100.00
9738;BME280;4908;47.446;13.900;2023-11-22T03:17:26;92707.13;;;3.65;100.00
9738;BME280;4908;47.446;13.900;2023-11-22T03:19:53;92708.72;;;3.70;100.00
9738;BME280;4908;47.446;13.900;2023-11-22T03:22:21;92709.50;;;3.70;100.00
9738;BME280;4908;47.446;13.900;2023-11-22T03:24:49;92714.97;;;3.77;100.00
9738;BME280;4908;47.446;13.900;2023-11-22T03:27:16;92708.41;;;3.87;100.00
9738;BME280;4908;47.446;13.900;2023-11-22T03:29:43;92712.59;;;3.88;100.00
9738;BME280;4908;47.446;13.900;2023-11-22T03:32:11;92721.41;;;3.92;100.00
9738;BME280;4908;47.446;13.900;2023-11-22T03:34:40;92727.22;;;3.82;100.00
9738;BME280;4908;47.446;13.900;2023-11-22T03:37:07;92723.50;;;3.55;100.00
9738;BME280;4908;47.446;13.900;2023-11-22T03:39:35;92732.38;;;3.62;100.00
9738;BME280;4908;47.446;13.900;2023-11-22T03:42:02;92725.41;;;3.70;100.00
9738;BME280;4908;47.446;13.900;2023-11-22T03:44:30;92727.78;;;3.75;100.00
9738;BME280;4908;47.446;13.900;2023-11-22T03:46:57;92722.50;;;3.75;100.00
9738;BME280;4908;47.446;13.900;2023-11-22T03:49:24;92730.88;;;3.77;100.00
9738;BME280;4908;47.446;13.900;2023-11-22T03:51:53;92735.50;;;3.80;100.00
9738;BME280;4908;47.446;13.900;2023-11-22T03:54:20;92746.00;;;3.77;100.00
9738;BME280;4908;47.446;13.900;2023-11-22T03:56:47;92739.94;;;3.76;100.00
9738;BME280;4908;47.446;13.900;2023-11-22T03:59:14;92738.91;;;3.81;100.00
9738;BME280;4908;47.446;13.900;2023-11-22T04:01:41;92746.94;;;3.84;100.00
9738;BME280;4908;47.446;13.900;2023-11-22T04:04:08;92744.97;;;3.81;100.00
9738;BME280;4908;47.446;13.900;2023-11-22T04:06:36;92752.81;;;3.78;100.00
9738;BME280;4908;47.446;13.900;2023-11-22T04:09:04;92757.84;;;3.67;100.00
9738;BME280;4908;47.446;13.900;2023-11-22T04:11:34;92756.41;;;3.70;100.00
9738;BME280;4908;47.446;13.900;2023-11-22T04:14:01;92756.16;;;3.75;100.00
9738;BME280;4908;47.446;13.900;2023-11-22T04:16:28;92749.84;;;3.79;100.00
9738;BME280;4908;47.446;13.900;2023-11-22T04:18:55;92750.44;;;3.73;100.00
9738;BME280;4908;47.446;13.900;2023-11-22T04:21:23;92754.88;;;3.69;100.00
9738;BME280;4908;47.446;13.900;2023-11-22T04:23:51;92754.94;;;3.72;100.00
9738;BME280;4908;47.446;13.900;2023-11-22T04:26:19;92759.72;;;3.67;100.00
9738;BME280;4908;47.446;13.900;2023-11-22T04:28:47;92754.34;;;3.63;100.00
9738;BME280;4908;47.446;13.900;2023-11-22T04:31:14;92764.09;;;3.75;100.00
9738;BME280;4908;47.446;13.900;2023-11-22T04:33:42;92765.84;;;3.83;100.00
9738;BME280;4908;47.446;13.900;2023-11-22T04:36:09;92757.06;;;3.94;100.00
9738;BME280;4908;47.446;13.900;2023-11-22T04:38:37;92758.22;;;3.81;100.00
9738;BME280;4908;47.446;13.900;2023-11-22T04:41:04;92763.06;;;3.79;100.00
9738;BME280;4908;47.446;13.900;2023-11-22T04:43:33;92760.00;;;3.77;100.00
9738;BME280;4908;47.446;13.900;2023-11-22T04:46:00;92765.84;;;3.83;100.00
9738;BME280;4908;47.446;13.900;2023-11-22T04:48:29;92768.19;;;3.72;100.00
9738;BME280;4908;47.446;13.900;2023-11-22T04:50:57;92771.28;;;3.74;100.00
9738;BME280;4908;47.446;13.900;2023-11-22T04:53:24;92776.56;;;3.74;100.00
9738;BME280;4908;47.446;13.900;2023-11-22T04:55:51;92780.75;;;3.75;100.00
9738;BME280;4908;47.446;13.900;2023-11-22T04:58:18;92783.34;;;3.87;100.00
9738;BME280;4908;47.446;13.900;2023-11-22T05:00:47;92787.97;;;3.90;100.00
9738;BME280;4908;47.446;13.900;2023-11-22T05:03:14;92799.31;;;3.91;100.00
9738;BME280;4908;47.446;13.900;2023-11-22T05:05:41;92790.09;;;3.85;100.00
9738;BME280;4908;47.446;13.900;2023-11-22T05:08:08;92795.09;;;3.74;100.00
9738;BME280;4908;47.446;13.900;2023-11-22T05:10:36;92798.00;;;3.69;100.00
9738;BME280;4908;47.446;13.900;2023-11-22T05:13:03;92801.84;;;3.72;100.00
9738;BME280;4908;47.446;13.900;2023-11-22T05:15:31;92801.94;;;3.75;100.00
9738;BME280;4908;47.446;13.900;2023-11-22T05:17:59;92802.69;;;4.03;100.00
9738;BME280;4908;47.446;13.900;2023-11-22T05:20:27;92805.31;;;3.88;100.00
9738;BME280;4908;47.446;13.900;2023-11-22T05:22:54;92805.81;;;3.65;100.00
9738;BME280;4908;47.446;13.900;2023-11-22T05:25:21;92813.63;;;3.46;100.00
9738;BME280;4908;47.446;13.900;2023-11-22T05:27:49;92821.78;;;3.53;100.00
9738;BME280;4908;47.446;13.900;2023-11-22T05:30:17;92824.44;;;3.53;100.00
9738;BME280;4908;47.446;13.900;2023-11-22T05:32:44;92822.66;;;3.57;100.00
9738;BME280;4908;47.446;13.900;2023-11-22T05:35:12;92827.59;;;3.59;100.00
9738;BME280;4908;47.446;13.900;2023-11-22T05:37:40;92832.13;;;3.58;100.00
9738;BME280;4908;47.446;13.900;2023-11-22T05:40:08;92841.56;;;3.32;100.00
9738;BME280;4908;47.446;13.900;2023-11-22T05:42:36;92836.72;;;3.34;100.00
9738;BME280;4908;47.446;13.900;2023-11-22T05:45:03;92836.56;;;3.42;100.00
9738;BME280;4908;47.446;13.900;2023-11-22T05:47:31;92846.94;;;3.47;100.00
9738;BME280;4908;47.446;13.900;2023-11-22T05:49:58;92841.13;;;3.42;100.00
9738;BME280;4908;47.446;13.900;2023-11-22T05:52:26;92845.84;;;3.36;100.00
9738;BME280;4908;47.446;13.900;2023-11-22T05:54:53;92860.72;;;3.41;100.00
9738;BME280;4908;47.446;13.900;2023-11-22T05:57:22;92869.78;;;3.40;100.00
9738;BME280;4908;47.446;13.900;2023-11-22T05:59:49;92860.81;;;3.44;100.00
9738;BME280;4908;47.446;13.900;2023-11-22T06:02:16;92859.81;;;3.61;100.00
9738;BME280;4908;47.446;13.900;2023-11-22T06:04:43;92871.00;;;3.82;100.00
9738;BME280;4908;47.446;13.900;2023-11-22T06:07:10;92874.50;;;3.86;100.00
9738;BME280;4908;47.446;13.900;2023-11-22T06:09:38;92861.06;;;3.79;100.00
9738;BME280;4908;47.446;13.900;2023-11-22T06:12:06;92871.44;;;3.84;100.00
9738;BME280;4908;47.446;13.900;2023-11-22T06:14:33;92872.53;;;3.83;100.00
9738;BME280;4908;47.446;13.900;2023-11-22T06:17:00;92876.06;;;3.75;100.00
9738;BME280;4908;47.446;13.900;2023-11-22T06:19:28;92877.88;;;3.71;100.00
9738;BME280;4908;47.446;13.900;2023-11-22T06:21:56;92886.03;;;3.66;100.00
9738;BME280;4908;47.446;13.900;2023-11-22T06:24:23;92890.91;;;3.64;100.00
9738;BME280;4908;47.446;13.900;2023-11-22T06:26:52;92901.94;;;3.66;100.00
9738;BME280;4908;47.446;13.900;2023-11-22T06:29:19;92892.91;;;3.67;100.00
9738;BME280;4908;47.446;13.900;2023-11-22T06:31:46;92906.94;;;3.83;100.00
9738;BME280;4908;47.446;13.900;2023-11-22T06:34:14;92908.53;;;3.72;100.00
9738;BME280;4908;47.446;13.900;2023-11-22T06:36:41;92916.03;;;3.70;100.00
9738;BME280;4908;47.446;13.900;2023-11-22T06:39:08;92919.47;;;3.71;100.00
9738;BME280;4908;47.446;13.900;2023-11-22T06:41:39;92919.91;;;3.73;100.00
9738;BME280;4908;47.446;13.900;2023-11-22T06:44:08;92917.59;;;3.71;100.00
9738;BME280;4908;47.446;13.900;2023-11-22T06:46:36;92927.50;;;3.74;100.00
9738;BME280;4908;47.446;13.900;2023-11-22T06:49:03;92916.22;;;3.77;100.00
9738;BME280;4908;47.446;13.900;2023-11-22T06:51:30;92931.41;;;3.52;100.00
9738;BME280;4908;47.446;13.900;2023-11-22T06:53:57;92933.06;;;3.45;100.00
9738;BME280;4908;47.446;13.900;2023-11-22T06:56:24;92934.06;;;3.40;100.00
9738;BME280;4908;47.446;13.900;2023-11-22T06:58:51;92939.44;;;3.68;100.00
9738;BME280;4908;47.446;13.900;2023-11-22T07:01:22;92941.84;;;3.73;100.00
9738;BME280;4908;47.446;13.900;2023-11-22T07:03:51;92940.31;;;3.72;100.00
9738;BME280;4908;47.446;13.900;2023-11-22T07:06:19;92947.47;;;3.72;100.00
9738;BME280;4908;47.446;13.900;2023-11-22T07:08:48;92955.31;;;3.56;100.00
9738;BME280;4908;47.446;13.900;2023-11-22T07:11:21;92960.19;;;3.54;100.00
9738;BME280;4908;47.446;13.900;2023-11-22T07:13:49;92965.81;;;3.64;100.00
9738;BME280;4908;47.446;13.900;2023-11-22T07:16:17;92956.88;;;3.69;100.00
9738;BME280;4908;47.446;13.900;2023-11-22T07:18:46;92974.72;;;3.84;100.00
9738;BME280;4908;47.446;13.900;2023-11-22T07:21:13;92985.56;;;3.67;100.00
9738;BME280;4908;47.446;13.900;2023-11-22T07:23:40;92981.78;;;3.92;100.00
9738;BME280;4908;47.446;13.900;2023-11-22T07:26:07;92988.41;;;3.86;100.00
9738;BME280;4908;47.446;13.900;2023-11-22T07:28:34;92988.19;;;3.79;100.00
9738;BME280;4908;47.446;13.900;2023-11-22T07:31:02;92983.00;;;3.83;100.00
9738;BME280;4908;47.446;13.900;2023-11-22T07:33:31;92987.06;;;3.92;100.00
9738;BME280;4908;47.446;13.900;2023-11-22T07:36:00;92984.72;;;4.03;100.00
9738;BME280;4908;47.446;13.900;2023-11-22T07:38:28;92998.50;;;4.08;100.00
9738;BME280;4908;47.446;13.900;2023-11-22T07:40:56;92996.06;;;4.15;100.00
9738;BME280;4908;47.446;13.900;2023-11-22T07:43:23;93000.91;;;4.25;100.00
9738;BME280;4908;47.446;13.900;2023-11-22T07:45:50;93009.41;;;4.31;100.00
9738;BME280;4908;47.446;13.900;2023-11-22T07:48:18;93008.22;;;4.16;100.00
9738;BME280;4908;47.446;13.900;2023-11-22T07:50:45;93007.31;;;4.12;100.00
9738;BME280;4908;47.446;13.900;2023-11-22T07:53:16;93011.97;;;4.15;100.00
9738;BME280;4908;47.446;13.900;2023-11-22T07:55:43;93012.84;;;4.19;100.00
9738;BME280;4908;47.446;13.900;2023-11-22T07:58:10;93005.00;;;4.23;100.00
9738;BME280;4908;47.446;13.900;2023-11-22T08:00:37;93002.88;;;4.28;100.00
9738;BME280;4908;47.446;13.900;2023-11-22T08:03:07;93003.41;;;4.34;100.00
9738;BME280;4908;47.446;13.900;2023-11-22T08:05:34;93005.34;;;4.21;100.00
9738;BME280;4908;47.446;13.900;2023-11-22T08:08:02;93006.25;;;4.01;100.00
9738;BME280;4908;47.446;13.900;2023-11-22T08:10:33;93021.91;;;4.18;100.00
9738;BME280;4908;47.446;13.900;2023-11-22T08:13:01;93017.72;;;4.17;100.00
9738;BME280;4908;47.446;13.900;2023-11-22T08:15:28;93026.56;;;4.09;100.00
9738;BME280;4908;47.446;13.900;2023-11-22T08:17:57;93026.66;;;4.01;100.00
9738;BME280;4908;47.446;13.900;2023-11-22T08:20:25;93031.22;;;4.00;100.00
9738;BME280;4908;47.446;13.900;2023-11-22T08:22:53;93032.28;;;4.23;100.00
9738;BME280;4908;47.446;13.900;2023-11-22T08:25:20;93033.00;;;4.36;100.00
9738;BME280;4908;47.446;13.900;2023-11-22T08:27:48;93043.94;;;4.46;100.00
9738;BME280;4908;47.446;13.900;2023-11-22T08:30:16;93043.56;;;4.60;100.00
9738;BME280;4908;47.446;13.900;2023-11-22T08:32:44;93042.94;;;4.67;100.00
9738;BME280;4908;47.446;13.900;2023-11-22T08:35:13;93054.06;;;4.84;100.00
9738;BME280;4908;47.446;13.900;2023-11-22T08:37:41;93056.38;;;4.86;100.00
9738;BME280;4908;47.446;13.900;2023-11-22T08:40:10;93059.34;;;4.84;100.00
9738;BME280;4908;47.446;13.900;2023-11-22T08:42:39;93073.84;;;4.87;100.00
9738;BME280;4908;47.446;13.900;2023-11-22T08:45:09;93077.09;;;4.96;100.00
9738;BME280;4908;47.446;13.900;2023-11-22T08:47:39;93073.97;;;5.06;100.00
9738;BME280;4908;47.446;13.900;2023-11-22T08:50:07;93077.59;;;5.13;100.00
9738;BME280;4908;47.446;13.900;2023-11-22T08:52:36;93084.63;;;5.21;100.00
9738;BME280;4908;47.446;13.900;2023-11-22T08:55:05;93078.03;;;5.31;100.00
9738;BME280;4908;47.446;13.900;2023-11-22T08:57:33;93082.69;;;5.34;100.00
9738;BME280;4908;47.446;13.900;2023-11-22T09:00:00;93078.69;;;5.40;100.00
9738;BME280;4908;47.446;13.900;2023-11-22T09:02:35;93086.13;;;5.50;100.00
9738;BME280;4908;47.446;13.900;2023-11-22T09:05:03;93089.31;;;5.56;100.00
9738;BME280;4908;47.446;13.900;2023-11-22T09:07:32;93090.84;;;5.57;100.00
9738;BME280;4908;47.446;13.900;2023-11-22T09:10:01;93101.22;;;5.62;100.00
9738;BME280;4908;47.446;13.900;2023-11-22T09:12:35;93092.66;;;5.68;100.00
9738;BME280;4908;47.446;13.900;2023-11-22T09:15:03;93088.78;;;5.50;100.00
9738;BME280;4908;47.446;13.900;2023-11-22T09:17:35;93095.03;;;5.42;100.00
9738;BME280;4908;47.446;13.900;2023-11-22T09:20:06;93096.84;;;5.54;100.00
9738;BME280;4908;47.446;13.900;2023-11-22T09:22:36;93097.97;;;5.68;100.00
9738;BME280;4908;47.446;13.900;2023-11-22T09:25:06;93104.16;;;5.72;100.00
9738;BME280;4908;47.446;13.900;2023-11-22T09:27:36;93106.63;;;5.65;100.00
9738;BME280;4908;47.446;13.900;2023-11-22T09:30:05;93109.09;;;5.74;100.00
9738;BME280;4908;47.446;13.900;2023-11-22T09:32:38;93112.06;;;5.84;100.00
9738;BME280;4908;47.446;13.900;2023-11-22T09:35:05;93105.88;;;5.80;100.00
9738;BME280;4908;47.446;13.900;2023-11-22T09:37:35;93116.69;;;5.87;100.00
9738;BME280;4908;47.446;13.900;2023-11-22T09:40:04;93122.47;;;5.77;100.00
9738;BME280;4908;47.446;13.900;2023-11-22T09:42:34;93126.84;;;5.70;100.00
9738;BME280;4908;47.446;13.900;2023-11-22T09:45:02;93129.34;;;5.78;100.00
9738;BME280;4908;47.446;13.900;2023-11-22T09:47:32;93131.28;;;5.66;100.00
9738;BME280;4908;47.446;13.900;2023-11-22T09:50:02;93128.13;;;5.60;100.00
9738;BME280;4908;47.446;13.900;2023-11-22T09:52:33;93137.56;;;5.58;100.00
9738;BME280;4908;47.446;13.900;2023-11-22T09:55:02;93148.50;;;5.56;100.00
9738;BME280;4908;47.446;13.900;2023-11-22T09:57:30;93150.66;;;5.66;100.00
9738;BME280;4908;47.446;13.900;2023-11-22T10:00:01;93144.34;;;5.71;100.00
9738;BME280;4908;47.446;13.900;2023-11-22T10:02:28;93137.09;;;5.83;100.00
9738;BME280;4908;47.446;13.900;2023-11-22T10:04:56;93136.34;;;5.98;100.00
9738;BME280;4908;47.446;13.900;2023-11-22T10:07:24;93149.16;;;5.81;100.00
9738;BME280;4908;47.446;13.900;2023-11-22T10:09:52;93145.56;;;5.89;100.00
9738;BME280;4908;47.446;13.900;2023-11-22T10:12:19;93146.13;;;5.94;100.00
9738;BME280;4908;47.446;13.900;2023-11-22T10:14:47;93155.91;;;5.78;100.00
9738;BME280;4908;47.446;13.900;2023-11-22T10:17:14;93155.06;;;5.74;100.00
9738;BME280;4908;47.446;13.900;2023-11-22T10:19:42;93158.34;;;5.83;100.00
9738;BME280;4908;47.446;13.900;2023-11-22T10:22:09;93153.31;;;5.94;100.00
9738;BME280;4908;47.446;13.900;2023-11-22T10:24:43;93157.25;;;6.00;100.00
9738;BME280;4908;47.446;13.900;2023-11-22T10:27:12;93158.19;;;6.07;100.00
9738;BME280;4908;47.446;13.900;2023-11-22T10:29:39;93161.28;;;6.09;100.00
9738;BME280;4908;47.446;13.900;2023-11-22T10:32:06;93158.53;;;6.21;100.00
9738;BME280;4908;47.446;13.900;2023-11-22T10:34:34;93173.03;;;6.08;100.00
9738;BME280;4908;47.446;13.900;2023-11-22T10:37:02;93167.63;;;5.89;100.00
9738;BME280;4908;47.446;13.900;2023-11-22T10:39:30;93161.53;;;6.04;100.00
9738;BME280;4908;47.446;13.900;2023-11-22T10:41:59;93163.88;;;6.21;100.00
9738;BME280;4908;47.446;13.900;2023-11-22T10:44:27;93162.56;;;6.31;100.00
9738;BME280;4908;47.446;13.900;2023-11-22T10:46:54;93165.75;;;6.37;100.00
9738;BME280;4908;47.446;13.900;2023-11-22T10:49:21;93161.78;;;6.30;100.00
9738;BME280;4908;47.446;13.900;2023-11-22T10:51:51;93164.44;;;6.30;100.00
9738;BME280;4908;47.446;13.900;2023-11-22T10:54:20;93172.59;;;6.38;100.00
9738;BME280;4908;47.446;13.900;2023-11-22T10:56:55;93176.72;;;6.19;100.00
9738;BME280;4908;47.446;13.900;2023-11-22T10:59:26;93176.72;;;6.19;100.00
9738;BME280;4908;47.446;13.900;2023-11-22T11:01:56;93186.84;;;5.98;100.00
9738;BME280;4908;47.446;13.900;2023-11-22T11:04:33;93189.50;;;5.71;100.00
9738;BME280;4908;47.446;13.900;2023-11-22T11:07:02;93192.88;;;5.40;100.00
9738;BME280;4908;47.446;13.900;2023-11-22T11:09:29;93200.72;;;5.09;100.00
9738;BME280;4908;47.446;13.900;2023-11-22T11:11:58;93198.94;;;5.13;100.00
9738;BME280;4908;47.446;13.900;2023-11-22T11:14:27;93201.25;;;5.14;100.00
9738;BME280;4908;47.446;13.900;2023-11-22T11:16:55;93204.00;;;5.18;100.00
9738;BME280;4908;47.446;13.900;2023-11-22T11:19:24;93206.47;;;5.11;100.00
9738;BME280;4908;47.446;13.900;2023-11-22T11:21:54;93207.22;;;5.11;100.00
9738;BME280;4908;47.446;13.900;2023-11-22T11:24:22;93215.28;;;5.15;100.00
9738;BME280;4908;47.446;13.900;2023-11-22T11:26:50;93211.88;;;5.42;100.00
9738;BME280;4908;47.446;13.900;2023-11-22T11:29:33;93214.25;;;5.59;100.00
9738;BME280;4908;47.446;13.900;2023-11-22T11:32:02;93221.78;;;5.57;100.00
9738;BME280;4908;47.446;13.900;2023-11-22T11:34:29;93226.00;;;5.74;100.00
9738;BME280;4908;47.446;13.900;2023-11-22T11:36:59;93230.13;;;5.99;100.00
9738;BME280;4908;47.446;13.900;2023-11-22T11:39:27;93233.66;;;6.03;100.00
9738;BME280;4908;47.446;13.900;2023-11-22T11:42:08;93241.78;;;5.94;100.00
9738;BME280;4908;47.446;13.900;2023-11-22T11:44:37;93244.78;;;5.93;100.00
9738;BME280;4908;47.446;13.900;2023-11-22T11:47:17;93238.38;;;6.09;100.00
9738;BME280;4908;47.446;13.900;2023-11-22T11:49:44;93229.72;;;6.12;100.00
9738;BME280;4908;47.446;13.900;2023-11-22T11:52:11;93233.75;;;6.22;100.00
9738;BME280;4908;47.446;13.900;2023-11-22T11:54:39;93231.63;;;6.27;100.00
9738;BME280;4908;47.446;13.900;2023-11-22T11:57:06;93233.16;;;6.28;100.00
9738;BME280;4908;47.446;13.900;2023-11-22T11:59:34;93222.44;;;6.41;100.00
9738;BME280;4908;47.446;13.900;2023-11-22T12:02:03;93215.63;;;6.59;100.00
9738;BME280;4908;47.446;13.900;2023-11-22T12:04:31;93221.72;;;6.75;100.00
9738;BME280;4908;47.446;13.900;2023-11-22T12:06:58;93211.06;;;6.90;100.00
9738;BME280;4908;47.446;13.900;2023-11-22T12:09:25;93218.00;;;6.95;100.00
9738;BME280;4908;47.446;13.900;2023-11-22T12:11:54;93211.56;;;6.96;100.00
9738;BME280;4908;47.446;13.900;2023-11-22T12:14:22;93214.63;;;6.98;100.00
9738;BME280;4908;47.446;13.900;2023-11-22T12:16:50;93226.16;;;7.02;100.00
9738;BME280;4908;47.446;13.900;2023-11-22T12:19:25;93231.91;;;7.04;100.00
9738;BME280;4908;47.446;13.900;2023-11-22T12:21:52;93231.03;;;7.00;100.00
9738;BME280;4908;47.446;13.900;2023-11-22T12:24:20;93238.44;;;6.91;100.00
9738;BME280;4908;47.446;13.900;2023-11-22T12:26:47;93223.88;;;6.85;100.00
9738;BME280;4908;47.446;13.900;2023-11-22T12:29:15;93234.34;;;6.78;100.00
9738;BME280;4908;47.446;13.900;2023-11-22T12:31:45;93225.84;;;6.72;100.00
9738;BME280;4908;47.446;13.900;2023-11-22T12:34:14;93229.97;;;6.70;100.00
9738;BME280;4908;47.446;13.900;2023-11-22T12:36:43;93236.50;;;6.72;100.00
9738;BME280;4908;47.446;13.900;2023-11-22T12:39:12;93235.88;;;6.79;100.00
9738;BME280;4908;47.446;13.900;2023-11-22T12:41:43;93226.81;;;6.80;100.00
9738;BME280;4908;47.446;13.900;2023-11-22T12:44:11;93230.56;;;6.79;100.00
9738;BME280;4908;47.446;13.900;2023-11-22T12:46:48;93232.44;;;6.78;100.00
9738;BME280;4908;47.446;13.900;2023-11-22T12:49:21;93231.78;;;6.66;100.00
9738;BME280;4908;47.446;13.900;2023-11-22T12:51:50;93229.06;;;6.62;100.00
9738;BME280;4908;47.446;13.900;2023-11-22T12:54:17;93236.19;;;6.58;100.00
9738;BME280;4908;47.446;13.900;2023-11-22T12:56:48;93232.31;;;6.56;100.00
9738;BME280;4908;47.446;13.900;2023-11-22T12:59:16;93245.88;;;6.51;100.00
9738;BME280;4908;47.446;13.900;2023-11-22T13:01:44;93258.66;;;6.45;100.00
9738;BME280;4908;47.446;13.900;2023-11-22T13:04:11;93252.88;;;6.59;100.00
9738;BME280;4908;47.446;13.900;2023-11-22T13:06:41;93246.97;;;6.50;100.00
9738;BME280;4908;47.446;13.900;2023-11-22T13:09:09;93239.94;;;6.42;100.00
9738;BME280;4908;47.446;13.900;2023-11-22T13:11:41;93233.59;;;6.46;100.00
9738;BME280;4908;47.446;13.900;2023-11-22T13:14:09;93239.84;;;6.38;100.00
9738;BME280;4908;47.446;13.900;2023-11-22T13:16:39;93234.88;;;6.37;100.00